createdAt,value
2019-05-17T00:02:46.588Z,18.23
2019-05-17T00:12:48.164Z,16.13
2019-05-17T00:22:49.598Z,15.63
2019-05-17T00:32:51.092Z,17.73
2019-05-17T00:42:52.593Z,29.17
2019-05-17T00:52:54.031Z,19.77
2019-05-17T01:02:57.354Z,44.93
2019-05-17T01:13:00.235Z,24.27
2019-05-17T01:23:01.762Z,17.23
2019-05-17T01:33:03.559Z,15.90
2019-05-17T01:43:07.572Z,21.27
2019-05-17T01:53:08.489Z,16.93
2019-05-17T02:03:10.150Z,16.57
2019-05-17T02:13:11.681Z,18.20
2019-05-17T02:23:13.324Z,15.93
2019-05-17T02:33:15.061Z,18.67
2019-05-17T02:43:16.816Z,20.77
2019-05-17T02:53:18.227Z,19.23
2019-05-17T03:03:19.683Z,28.70
2019-05-17T03:13:23.362Z,20.40
2019-05-17T03:23:25.038Z,20.70
2019-05-17T03:33:27.786Z,29.90
2019-05-17T03:43:29.298Z,26.43
2019-05-17T03:53:33.520Z,23.60
2019-05-17T04:03:35.470Z,24.07
2019-05-17T04:13:37.244Z,29.40
2019-05-17T04:23:38.675Z,23.83
2019-05-17T04:33:42.834Z,27.87
2019-05-17T04:43:43.582Z,38.30
2019-05-17T04:53:45.147Z,38.67
2019-05-17T05:03:46.561Z,40.60
2019-05-17T05:13:48.032Z,43.30
2019-05-17T05:23:51.704Z,38.50
2019-05-17T05:33:52.922Z,40.70
2019-05-17T05:43:54.351Z,49.07
2019-05-17T05:53:55.758Z,31.67
2019-05-17T06:03:57.193Z,26.40
2019-05-17T06:13:58.646Z,20.80
2019-05-17T06:24:02.427Z,15.90
2019-05-17T06:34:03.749Z,14.37
2019-05-17T06:44:05.435Z,12.53
2019-05-17T06:54:06.859Z,12.27
2019-05-17T07:04:10.245Z,10.37
2019-05-17T07:14:11.762Z,11.55
2019-05-17T07:24:13.200Z,12.20
2019-05-17T07:34:14.743Z,12.23
2019-05-17T07:44:17.577Z,12.45
2019-05-17T07:54:19.705Z,14.10
2019-05-17T08:04:21.224Z,11.93
2019-05-17T08:14:30.065Z,10.98
2019-05-17T08:24:26.238Z,10.32
2019-05-17T08:34:29.316Z,12.73
2019-05-17T08:44:30.903Z,13.15
2019-05-17T08:54:32.538Z,10.50
2019-05-17T09:04:34.190Z,11.10
2019-05-17T09:14:35.662Z,10.50
2019-05-17T09:24:39.509Z,11.05
2019-05-17T09:34:40.576Z,7.53
2019-05-17T09:44:42.048Z,7.25
2019-05-17T09:54:45.422Z,7.50
2019-05-17T10:04:46.902Z,10.23
2019-05-17T10:14:49.793Z,8.43
2019-05-17T10:24:51.919Z,8.20
2019-05-17T10:34:53.332Z,9.05
2019-05-17T10:44:54.957Z,9.83
2019-05-17T10:54:59.813Z,8.95
2019-05-17T11:05:01.940Z,7.50
2019-05-17T11:15:11.613Z,7.70
2019-05-17T11:25:09.263Z,7.53
2019-05-17T11:35:10.811Z,6.90
2019-05-17T11:45:26.648Z,3.65
2019-05-17T11:55:16.077Z,4.28
2019-05-17T12:05:18.119Z,6.62
2019-05-17T12:15:19.595Z,4.20
2019-05-17T12:25:21.282Z,2.37
2019-05-17T12:35:22.739Z,5.87
2019-05-17T12:45:24.533Z,7.20
2019-05-17T12:55:25.972Z,8.23
2019-05-17T13:05:27.480Z,5.07
2019-05-17T13:15:29.151Z,6.23
2019-05-17T13:25:30.609Z,5.20
2019-05-17T13:35:32.239Z,3.20
2019-05-17T13:45:33.809Z,4.50
2019-05-17T13:55:35.347Z,1.60
2019-05-17T14:05:37.092Z,4.40
2019-05-17T14:15:38.758Z,3.37
2019-05-17T14:25:40.298Z,4.50
2019-05-17T14:35:41.902Z,4.63
2019-05-17T14:45:43.450Z,5.20
2019-05-17T14:55:45.910Z,1.97
2019-05-17T15:05:47.484Z,2.17
2019-05-17T15:15:49.047Z,2.80
2019-05-17T15:25:50.601Z,2.50
2019-05-17T15:35:52.075Z,2.57
2019-05-17T15:45:53.551Z,1.80
2019-05-17T15:55:55.023Z,2.10
2019-05-17T16:05:56.582Z,4.67
2019-05-17T16:15:58.285Z,2.00
2019-05-17T16:25:59.906Z,2.53
2019-05-17T16:36:01.457Z,3.67
2019-05-17T16:46:22.878Z,5.47
2019-05-17T16:56:24.424Z,4.07
2019-05-17T17:06:26.064Z,4.80
2019-05-17T17:16:28.901Z,3.33
2019-05-17T17:26:30.330Z,4.63
2019-05-17T17:36:32.318Z,2.60
2019-05-17T17:46:35.688Z,2.13
2019-05-17T17:56:37.141Z,3.07
2019-05-17T18:06:41.629Z,2.20
2019-05-17T18:16:43.079Z,2.60
2019-05-17T18:26:44.704Z,3.47
2019-05-17T18:36:46.342Z,4.07
2019-05-17T18:46:47.890Z,3.57
2019-05-17T18:56:49.437Z,24.33
2019-05-17T19:06:50.915Z,2.70
2019-05-17T19:16:52.459Z,2.67
2019-05-17T19:26:53.950Z,6.13
2019-05-17T19:36:55.528Z,6.40
2019-05-17T19:47:00.330Z,8.83
2019-05-17T19:57:02.271Z,5.10
2019-05-17T20:07:04.282Z,8.53
2019-05-17T20:17:05.735Z,3.53
2019-05-17T20:27:07.446Z,5.43
2019-05-17T20:37:09.092Z,3.27
2019-05-17T20:47:10.662Z,4.27
2019-05-17T20:57:12.158Z,4.53
2019-05-17T21:07:15.624Z,4.50
2019-05-17T21:17:17.301Z,5.20
2019-05-17T21:27:19.010Z,3.77
2019-05-17T21:37:21.110Z,3.87
2019-05-17T21:47:24.591Z,5.63
2019-05-17T21:57:26.078Z,5.77
2019-05-17T22:07:30.558Z,5.50
2019-05-17T22:17:32.103Z,12.30
2019-05-17T22:27:33.692Z,5.47
2019-05-17T22:37:35.227Z,7.70
2019-05-17T22:47:36.869Z,4.57
2019-05-17T22:57:38.423Z,7.63
2019-05-17T23:07:39.835Z,7.70
2019-05-17T23:17:41.271Z,9.57
2019-05-17T23:27:42.760Z,6.20
2019-05-17T23:37:44.198Z,5.03
2019-05-17T23:47:45.637Z,4.97
2019-05-17T23:57:47.082Z,7.37
